Time;durP1;ratioP1;P1;durP2;ratioP2;P2;SDS_P1;SDS_P2;PMS_P1;PMS_P2;Temp;Humidity;BMP_temperature;BMP_pressure;BME280_temperature;BME280_humidity;BME280_pressure;Samples;Min_cycle;Max_cycle;Signal;HPM_P1;HPM_P2
2022/10/15 00:01:14;;;;;;;9.43;8.82;;;;;;;;;;5014586;28;20022;-67
2022/10/15 00:03:41;;;;;;;8.93;8.32;;;;;;;;;;5014915;28;20464;-68
2022/10/15 00:06:13;;;;;;;9.18;8.57;;;;;;;;;;5016158;28;20100;-69
2022/10/15 00:08:39;;;;;;;8.95;8.35;;;;;;;;;;5016246;28;20287;-68
2022/10/15 00:11:11;;;;;;;10.15;9.45;;;;;;;;;;5013451;28;20030;-69
2022/10/15 00:13:37;;;;;;;9.60;9.00;;;;;;;;;;5015147;28;20281;-70
2022/10/15 00:16:05;;;;;;;9.80;9.20;;;;;;;;;;5014823;28;20044;-70
2022/10/15 00:18:30;;;;;;;9.35;8.75;;;;;;;;;;5015902;28;20021;-70
2022/10/15 00:20:56;;;;;;;10.30;9.68;;;;;;;;;;5014521;28;20079;-70
2022/10/15 00:23:21;;;;;;;9.00;8.40;;;;;;;;;;5013911;28;20041;-70
2022/10/15 00:25:47;;;;;;;10.25;9.55;;;;;;;;;;5014326;28;20043;-69
2022/10/15 00:28:12;;;;;;;10.75;10.00;;;;;;;;;;5012289;28;20486;-70
2022/10/15 00:30:37;;;;;;;9.73;9.13;;;;;;;;;;5018978;28;20330;-70
2022/10/15 00:33:03;;;;;;;11.10;10.40;;;;;;;;;;5019171;28;20112;-70
2022/10/15 00:35:28;;;;;;;10.48;9.88;;;;;;;;;;5022538;28;20319;-70
2022/10/15 00:37:54;;;;;;;10.27;9.68;;;;;;;;;;5018958;28;20040;-70
2022/10/15 00:40:20;;;;;;;11.10;10.40;;;;;;;;;;5035305;28;20092;-70
2022/10/15 00:42:45;;;;;;;11.30;10.60;;;;;;;;;;5017619;28;20046;-70
2022/10/15 00:45:13;;;;;;;11.38;10.68;;;;;;;;;;5020720;28;20037;-70
2022/10/15 00:47:46;;;;;;;10.02;9.43;;;;;;;;;;5015315;28;20025;-70
2022/10/15 00:50:23;;;;;;;10.55;9.85;;;;;;;;;;5031955;28;20043;-69
2022/10/15 00:52:58;;;;;;;9.85;9.25;;;;;;;;;;5017620;28;20345;-69
2022/10/15 00:55:28;;;;;;;10.77;10.07;;;;;;;;;;5019353;28;20124;-70
2022/10/15 00:57:55;;;;;;;9.73;9.13;;;;;;;;;;5016333;28;20034;-70
2022/10/15 01:00:21;;;;;;;10.35;9.75;;;;;;;;;;5020136;28;20034;-69
2022/10/15 01:02:47;;;;;;;11.40;10.70;;;;;;;;;;5019437;28;20052;-69
2022/10/15 01:05:15;;;;;;;12.35;11.55;;;;;;;;;;5016810;28;20103;-69
2022/10/15 01:07:40;;;;;;;11.20;10.50;;;;;;;;;;5017184;28;20018;-70
2022/10/15 01:10:08;;;;;;;11.27;10.57;;;;;;;;;;5017908;28;20034;-69
2022/10/15 01:13:03;;;;;;;13.10;12.30;;;;;;;;;;5020167;28;20041;-69
2022/10/15 01:15:36;;;;;;;10.45;9.85;;;;;;;;;;5022061;28;20120;-69
2022/10/15 01:18:08;;;;;;;11.18;10.48;;;;;;;;;;5023327;28;20137;-69
2022/10/15 01:20:47;;;;;;;11.82;11.02;;;;;;;;;;5019393;28;20033;-69
2022/10/15 01:23:51;;;;;;;10.50;9.80;;;;;;;;;;5016932;28;20132;-69
2022/10/15 01:26:45;;;;;;;10.02;9.43;;;;;;;;;;4975632;28;20070;-69
2022/10/15 01:29:48;;;;;;;12.15;11.45;;;;;;;;;;5017231;28;20057;-69
2022/10/15 01:32:33;;;;;;;10.35;9.65;;;;;;;;;;5017328;28;20041;-69
2022/10/15 01:35:28;;;;;;;11.32;10.63;;;;;;;;;;5018363;28;20060;-69
2022/10/15 01:38:08;;;;;;;12.35;11.55;;;;;;;;;;4997090;28;20099;-70
2022/10/15 01:40:50;;;;;;;14.05;13.25;;;;;;;;;;5019939;28;20124;-70
2022/10/15 01:43:21;;;;;;;10.90;10.20;;;;;;;;;;5020027;28;20034;-70
2022/10/15 01:46:00;;;;;;;11.27;10.57;;;;;;;;;;5017218;28;20034;-70
2022/10/15 01:48:28;;;;;;;12.82;12.02;;;;;;;;;;5019148;28;20126;-69
2022/10/15 01:50:58;;;;;;;11.10;10.40;;;;;;;;;;5014119;28;20091;-70
2022/10/15 01:53:25;;;;;;;10.93;10.23;;;;;;;;;;5017847;28;20029;-69
2022/10/15 01:56:00;;;;;;;11.43;10.73;;;;;;;;;;5017607;28;20040;-69
2022/10/15 01:58:28;;;;;;;11.40;10.70;;;;;;;;;;5015932;28;20047;-69
2022/10/15 02:00:55;;;;;;;11.18;10.45;;;;;;;;;;5014943;28;20357;-69
2022/10/15 02:03:21;;;;;;;14.60;13.70;;;;;;;;;;5017876;28;20033;-69
2022/10/15 02:06:08;;;;;;;13.63;12.82;;;;;;;;;;5018822;28;20430;-70
2022/10/15 02:09:02;;;;;;;12.98;12.18;;;;;;;;;;5017725;28;20026;-68
2022/10/15 02:11:30;;;;;;;12.95;12.00;;;;;;;;;;5017747;28;20034;-69
2022/10/15 02:14:10;;;;;;;12.38;11.68;;;;;;;;;;5018224;28;20041;-69
2022/10/15 02:16:58;;;;;;;14.77;13.90;;;;;;;;;;5031478;28;20030;-69
2022/10/15 02:19:48;;;;;;;14.52;13.73;;;;;;;;;;5015318;28;20120;-69
2022/10/15 02:22:18;;;;;;;12.50;11.70;;;;;;;;;;5017048;28;20105;-69
2022/10/15 02:24:55;;;;;;;13.05;12.25;;;;;;;;;;5014627;28;20030;-69
2022/10/15 02:27:22;;;;;;;12.82;11.93;;;;;;;;;;5019551;28;20115;-69
2022/10/15 02:29:50;;;;;;;12.70;11.90;;;;;;;;;;5018424;28;20048;-69
2022/10/15 02:32:18;;;;;;;13.88;13.07;;;;;;;;;;5018988;28;20128;-70
2022/10/15 02:34:44;;;;;;;12.02;11.32;;;;;;;;;;5014806;28;20317;-69
2022/10/15 02:37:11;;;;;;;13.32;12.52;;;;;;;;;;5016070;28;20026;-70
2022/10/15 02:39:36;;;;;;;14.75;13.90;;;;;;;;;;5015609;28;20030;-70
2022/10/15 02:42:02;;;;;;;13.15;12.35;;;;;;;;;;5013956;28;20038;-70
2022/10/15 02:44:28;;;;;;;14.00;13.20;;;;;;;;;;5017336;28;20034;-70
2022/10/15 02:46:55;;;;;;;16.95;16.00;;;;;;;;;;5014935;28;20080;-69
2022/10/15 02:49:20;;;;;;;15.85;14.95;;;;;;;;;;5016544;28;20136;-69
2022/10/15 02:51:45;;;;;;;17.08;16.08;;;;;;;;;;5016856;28;20120;-69
2022/10/15 02:54:11;;;;;;;17.80;16.80;;;;;;;;;;5014617;28;20133;-69
2022/10/15 02:56:38;;;;;;;16.15;15.20;;;;;;;;;;5015792;28;20443;-69
2022/10/15 02:59:04;;;;;;;15.15;14.25;;;;;;;;;;5016280;28;20048;-69
2022/10/15 03:01:31;;;;;;;17.83;16.83;;;;;;;;;;5015534;28;20339;-69
2022/10/15 03:03:56;;;;;;;16.88;15.88;;;;;;;;;;5021050;28;20132;-69
2022/10/15 03:06:22;;;;;;;17.90;16.90;;;;;;;;;;5019073;28;20512;-69
2022/10/15 03:08:47;;;;;;;17.95;16.95;;;;;;;;;;5014701;28;20033;-69
2022/10/15 03:11:14;;;;;;;16.98;15.98;;;;;;;;;;5017384;28;20048;-69
2022/10/15 03:13:40;;;;;;;18.65;17.55;;;;;;;;;;5014622;28;20223;-69
2022/10/15 03:16:07;;;;;;;18.67;17.52;;;;;;;;;;5017910;28;20017;-69
2022/10/15 03:18:32;;;;;;;21.48;20.20;;;;;;;;;;5015016;28;20028;-69
2022/10/15 03:20:59;;;;;;;21.48;20.27;;;;;;;;;;5014621;28;20029;-69
2022/10/15 03:23:25;;;;;;;21.42;20.23;;;;;;;;;;5015936;28;20042;-69
2022/10/15 03:25:51;;;;;;;19.85;18.75;;;;;;;;;;5018230;28;20145;-69
2022/10/15 03:28:17;;;;;;;21.60;20.38;;;;;;;;;;5014590;28;20554;-69
2022/10/15 03:30:42;;;;;;;20.90;19.70;;;;;;;;;;5014010;28;20037;-69
2022/10/15 03:33:08;;;;;;;22.73;21.42;;;;;;;;;;5013212;28;20032;-69
2022/10/15 03:35:34;;;;;;;19.10;18.05;;;;;;;;;;5016012;28;20040;-69
2022/10/15 03:37:59;;;;;;;20.95;19.75;;;;;;;;;;5015789;28;20037;-69
2022/10/15 03:40:24;;;;;;;22.73;21.33;;;;;;;;;;5017795;28;20026;-69
2022/10/15 03:42:51;;;;;;;20.73;19.52;;;;;;;;;;5014915;28;20048;-69
2022/10/15 03:45:19;;;;;;;19.58;18.48;;;;;;;;;;5014039;28;20499;-69
2022/10/15 03:47:44;;;;;;;19.15;18.05;;;;;;;;;;5012582;28;20057;-69
2022/10/15 03:50:10;;;;;;;18.20;17.10;;;;;;;;;;5013102;28;20026;-69
2022/10/15 03:52:37;;;;;;;19.70;18.40;;;;;;;;;;5013542;28;20036;-69
2022/10/15 03:55:04;;;;;;;18.00;16.90;;;;;;;;;;5016351;28;20053;-69
2022/10/15 03:57:29;;;;;;;16.38;15.38;;;;;;;;;;5016254;28;20083;-68
2022/10/15 03:59:54;;;;;;;15.38;14.45;;;;;;;;;;5012747;28;20034;-69
2022/10/15 04:02:20;;;;;;;15.27;14.35;;;;;;;;;;5017371;28;20025;-69
2022/10/15 04:04:45;;;;;;;15.60;14.52;;;;;;;;;;5015869;28;20386;-69
2022/10/15 04:07:10;;;;;;;14.82;13.95;;;;;;;;;;5021709;28;20053;-69
2022/10/15 04:09:36;;;;;;;15.50;14.60;;;;;;;;;;5022186;28;20078;-69
2022/10/15 04:12:01;;;;;;;15.93;15.02;;;;;;;;;;5032527;28;20037;-69
2022/10/15 04:14:27;;;;;;;15.52;14.60;;;;;;;;;;5019991;28;20116;-68
2022/10/15 04:16:52;;;;;;;15.50;14.60;;;;;;;;;;5018169;28;20036;-68
2022/10/15 04:19:17;;;;;;;14.50;13.63;;;;;;;;;;5019857;28;20129;-68
2022/10/15 04:21:43;;;;;;;15.48;14.57;;;;;;;;;;5017573;28;20080;-68
2022/10/15 04:24:08;;;;;;;16.25;15.27;;;;;;;;;;5019715;28;20125;-68
2022/10/15 04:26:34;;;;;;;14.80;13.80;;;;;;;;;;5019863;28;20580;-68
2022/10/15 04:28:59;;;;;;;16.35;15.38;;;;;;;;;;5018497;28;20056;-68
2022/10/15 04:31:25;;;;;;;15.75;14.85;;;;;;;;;;5020068;28;20067;-68
2022/10/15 04:33:50;;;;;;;14.13;13.32;;;;;;;;;;5019097;28;20091;-69
2022/10/15 04:36:15;;;;;;;14.82;13.93;;;;;;;;;;5019085;28;20133;-68
2022/10/15 04:38:41;;;;;;;14.98;13.77;;;;;;;;;;5016760;28;20086;-68
2022/10/15 04:41:10;;;;;;;14.45;13.63;;;;;;;;;;5019578;28;20030;-68
2022/10/15 04:43:36;;;;;;;14.02;13.23;;;;;;;;;;5018148;28;20037;-68
2022/10/15 04:46:04;;;;;;;14.70;13.82;;;;;;;;;;5021318;28;20061;-68
2022/10/15 04:48:32;;;;;;;15.25;14.25;;;;;;;;;;5017069;28;20033;-68
2022/10/15 04:51:03;;;;;;;14.48;13.68;;;;;;;;;;5015519;28;20390;-68
2022/10/15 04:53:29;;;;;;;15.73;14.82;;;;;;;;;;5018806;28;20042;-68
2022/10/15 04:56:06;;;;;;;14.52;13.73;;;;;;;;;;5019156;28;20049;-68
2022/10/15 04:58:32;;;;;;;15.02;14.13;;;;;;;;;;5020682;28;20029;-68
2022/10/15 05:01:00;;;;;;;15.90;15.00;;;;;;;;;;5020993;28;20038;-69
2022/10/15 05:03:25;;;;;;;15.00;14.10;;;;;;;;;;5019841;28;20494;-68
2022/10/15 05:05:51;;;;;;;15.25;14.35;;;;;;;;;;5018181;28;20070;-69
2022/10/15 05:08:16;;;;;;;16.23;15.32;;;;;;;;;;5020726;28;20141;-69
2022/10/15 05:10:41;;;;;;;17.33;16.33;;;;;;;;;;5015661;28;20033;-69
2022/10/15 05:13:07;;;;;;;16.08;15.18;;;;;;;;;;5017642;28;20048;-68
2022/10/15 05:15:32;;;;;;;16.65;15.73;;;;;;;;;;5024511;28;20026;-69
2022/10/15 05:17:57;;;;;;;16.75;15.80;;;;;;;;;;5023539;28;20053;-70
2022/10/15 05:20:23;;;;;;;16.77;15.73;;;;;;;;;;5021636;28;20021;-69
2022/10/15 05:22:48;;;;;;;16.55;15.48;;;;;;;;;;5019947;28;20384;-69
2022/10/15 05:25:14;;;;;;;16.48;15.50;;;;;;;;;;5020955;28;20512;-69
2022/10/15 05:27:39;;;;;;;16.70;15.73;;;;;;;;;;5021231;28;20415;-70
2022/10/15 05:30:05;;;;;;;18.10;17.10;;;;;;;;;;5022502;28;20036;-68
2022/10/15 05:32:30;;;;;;;18.13;17.13;;;;;;;;;;5034081;28;20092;-69
2022/10/15 05:34:56;;;;;;;19.90;18.80;;;;;;;;;;5015888;28;20034;-69
2022/10/15 05:37:21;;;;;;;21.23;20.10;;;;;;;;;;5020650;28;20044;-69
2022/10/15 05:39:47;;;;;;;21.23;20.02;;;;;;;;;;5017793;28;20037;-69
2022/10/15 05:42:12;;;;;;;20.63;19.50;;;;;;;;;;5014185;28;20057;-69
2022/10/15 05:44:37;;;;;;;19.10;17.80;;;;;;;;;;5019060;28;20080;-69
2022/10/15 05:47:03;;;;;;;19.83;18.48;;;;;;;;;;5016331;28;20030;-70
2022/10/15 05:49:28;;;;;;;18.95;17.90;;;;;;;;;;5014642;28;20025;-70
2022/10/15 05:51:53;;;;;;;19.30;18.23;;;;;;;;;;5013865;28;20026;-69
2022/10/15 05:54:18;;;;;;;19.42;18.33;;;;;;;;;;5018173;28;20056;-69
2022/10/15 05:56:44;;;;;;;17.10;16.10;;;;;;;;;;5010758;28;20036;-68
2022/10/15 05:59:09;;;;;;;17.63;16.63;;;;;;;;;;5018480;28;20026;-70
2022/10/15 06:01:36;;;;;;;18.48;17.40;;;;;;;;;;5014217;28;20534;-71
2022/10/15 06:04:02;;;;;;;16.40;15.50;;;;;;;;;;5016857;28;20144;-69
2022/10/15 06:06:27;;;;;;;16.45;15.52;;;;;;;;;;5016263;28;20176;-71
2022/10/15 06:08:53;;;;;;;15.40;14.50;;;;;;;;;;5019849;28;20034;-74
2022/10/15 06:11:19;;;;;;;18.33;17.33;;;;;;;;;;5018557;28;20684;-70
2022/10/15 06:13:45;;;;;;;14.73;13.88;;;;;;;;;;5014273;28;20071;-70
2022/10/15 06:16:12;;;;;;;16.58;15.57;;;;;;;;;;5016569;28;20066;-69
2022/10/15 06:18:38;;;;;;;14.18;13.38;;;;;;;;;;5019075;28;20038;-70
2022/10/15 06:21:04;;;;;;;14.80;13.95;;;;;;;;;;5017649;28;20068;-70
2022/10/15 06:23:29;;;;;;;13.90;13.10;;;;;;;;;;5014245;28;20087;-70
2022/10/15 06:25:55;;;;;;;15.00;14.10;;;;;;;;;;5016588;28;20022;-70
2022/10/15 06:28:20;;;;;;;13.82;13.02;;;;;;;;;;5013357;28;20034;-70
2022/10/15 06:30:46;;;;;;;14.98;14.10;;;;;;;;;;5015104;28;20034;-70
2022/10/15 06:33:11;;;;;;;15.65;14.75;;;;;;;;;;5017963;28;20038;-71
2022/10/15 06:35:36;;;;;;;15.77;14.88;;;;;;;;;;5021328;28;20155;-69
2022/10/15 06:38:04;;;;;;;17.60;16.60;;;;;;;;;;5015577;28;20045;-68
2022/10/15 06:40:30;;;;;;;17.95;16.95;;;;;;;;;;5016443;28;20160;-69
2022/10/15 06:43:02;;;;;;;17.00;16.08;;;;;;;;;;5013711;28;20411;-69
2022/10/15 06:45:28;;;;;;;19.70;18.60;;;;;;;;;;5015655;28;20076;-69
2022/10/15 06:47:53;;;;;;;18.88;17.77;;;;;;;;;;5013687;28;20423;-69
2022/10/15 06:50:18;;;;;;;20.42;19.30;;;;;;;;;;5013561;28;20192;-69
2022/10/15 06:52:44;;;;;;;24.20;22.85;;;;;;;;;;5014686;28;20366;-69
2022/10/15 06:55:09;;;;;;;26.50;25.10;;;;;;;;;;5017125;28;20037;-70
2022/10/15 06:57:34;;;;;;;26.67;25.17;;;;;;;;;;5016471;28;20026;-69
2022/10/15 07:00:00;;;;;;;24.60;23.30;;;;;;;;;;5016055;28;20562;-69
2022/10/15 07:02:25;;;;;;;26.50;25.05;;;;;;;;;;5022329;28;20553;-69
2022/10/15 07:04:50;;;;;;;27.55;25.00;;;;;;;;;;5014768;28;20041;-69
2022/10/15 07:07:16;;;;;;;25.52;24.13;;;;;;;;;;5015323;28;20025;-69
2022/10/15 07:09:41;;;;;;;24.70;23.30;;;;;;;;;;5015150;28;20025;-70
2022/10/15 07:12:06;;;;;;;25.85;24.48;;;;;;;;;;5012979;28;20120;-69
2022/10/15 07:14:32;;;;;;;26.15;24.75;;;;;;;;;;5018483;28;20060;-69
2022/10/15 07:16:58;;;;;;;26.27;24.88;;;;;;;;;;5014344;28;20575;-69
2022/10/15 07:19:24;;;;;;;26.27;24.88;;;;;;;;;;5017028;28;20037;-69
2022/10/15 07:21:50;;;;;;;27.05;25.58;;;;;;;;;;5011756;28;20084;-69
2022/10/15 07:24:15;;;;;;;26.40;25.00;;;;;;;;;;5014255;28;20613;-69
2022/10/15 07:26:40;;;;;;;24.65;23.35;;;;;;;;;;5016714;28;20410;-69
2022/10/15 07:29:06;;;;;;;26.17;24.77;;;;;;;;;;5017912;28;20123;-69
2022/10/15 07:31:32;;;;;;;25.70;24.35;;;;;;;;;;5017137;28;20033;-69
2022/10/15 07:33:57;;;;;;;27.90;26.40;;;;;;;;;;5014853;28;20363;-69
2022/10/15 07:36:24;;;;;;;28.38;26.88;;;;;;;;;;5013183;28;20125;-69
2022/10/15 07:38:50;;;;;;;28.75;27.25;;;;;;;;;;5017408;28;20029;-69
2022/10/15 07:41:15;;;;;;;28.08;26.50;;;;;;;;;;5017468;28;20072;-70
2022/10/15 07:43:42;;;;;;;28.85;27.35;;;;;;;;;;5019413;28;20033;-69
2022/10/15 07:46:07;;;;;;;27.02;25.63;;;;;;;;;;5016410;28;20033;-70
2022/10/15 07:48:32;;;;;;;29.23;27.67;;;;;;;;;;5015747;28;20040;-69
2022/10/15 07:51:01;;;;;;;28.88;27.38;;;;;;;;;;5013846;28;20034;-70
2022/10/15 07:53:26;;;;;;;27.95;26.45;;;;;;;;;;5017231;28;20065;-69
2022/10/15 07:55:52;;;;;;;28.13;26.63;;;;;;;;;;5028095;28;20118;-70
2022/10/15 07:58:18;;;;;;;27.25;25.75;;;;;;;;;;5027688;28;20033;-70
2022/10/15 08:00:43;;;;;;;27.15;25.75;;;;;;;;;;5015185;28;20026;-72
2022/10/15 08:03:09;;;;;;;26.02;24.63;;;;;;;;;;5016637;28;20120;-70
2022/10/15 08:05:34;;;;;;;27.23;25.80;;;;;;;;;;5012363;28;20117;-69
2022/10/15 08:08:00;;;;;;;32.75;31.05;;;;;;;;;;5014356;28;20447;-70
2022/10/15 08:10:26;;;;;;;26.73;25.33;;;;;;;;;;5016056;28;20044;-71
2022/10/15 08:12:51;;;;;;;23.98;22.67;;;;;;;;;;5013151;28;20480;-71
2022/10/15 08:15:17;;;;;;;25.48;24.08;;;;;;;;;;5013340;28;20111;-70
2022/10/15 08:17:42;;;;;;;22.92;21.70;;;;;;;;;;5031112;28;20026;-70
2022/10/15 08:20:09;;;;;;;25.63;24.25;;;;;;;;;;5012611;28;20088;-73
2022/10/15 08:22:34;;;;;;;25.90;24.52;;;;;;;;;;5014767;28;20033;-72
2022/10/15 08:25:00;;;;;;;24.92;23.63;;;;;;;;;;5014573;28;20483;-73
2022/10/15 08:27:25;;;;;;;26.05;24.65;;;;;;;;;;5013397;28;20049;-72
2022/10/15 08:29:51;;;;;;;26.17;24.80;;;;;;;;;;5015490;28;20028;-75
2022/10/15 08:32:16;;;;;;;24.27;22.98;;;;;;;;;;5015700;28;20060;-71
2022/10/15 08:34:42;;;;;;;24.27;22.98;;;;;;;;;;5016704;28;20038;-72
2022/10/15 08:37:07;;;;;;;24.85;23.52;;;;;;;;;;5015150;28;20034;-71
2022/10/15 08:39:34;;;;;;;24.75;23.45;;;;;;;;;;5015074;28;20033;-71
2022/10/15 08:42:03;;;;;;;21.80;20.60;;;;;;;;;;5016237;28;20033;-72
2022/10/15 08:44:29;;;;;;;23.60;22.10;;;;;;;;;;5017908;28;20095;-72
2022/10/15 08:47:04;;;;;;;21.58;20.38;;;;;;;;;;5013358;28;20042;-72
2022/10/15 08:49:50;;;;;;;20.05;18.95;;;;;;;;;;5015347;28;20060;-69
2022/10/15 08:52:30;;;;;;;17.73;16.75;;;;;;;;;;5017708;28;20048;-71
2022/10/15 08:55:00;;;;;;;17.02;16.08;;;;;;;;;;5017416;28;20040;-72
2022/10/15 08:57:38;;;;;;;19.85;18.75;;;;;;;;;;5018411;28;20021;-72
2022/10/15 09:00:12;;;;;;;20.70;19.60;;;;;;;;;;5017061;28;20045;-71
2022/10/15 09:02:51;;;;;;;19.52;18.48;;;;;;;;;;5017409;28;20072;-72
2022/10/15 09:05:41;;;;;;;20.85;19.67;;;;;;;;;;5020270;28;20037;-71
2022/10/15 09:08:09;;;;;;;21.13;19.92;;;;;;;;;;5018216;28;20026;-70
2022/10/15 09:10:43;;;;;;;22.17;20.98;;;;;;;;;;5018129;28;20026;-70
2022/10/15 09:13:26;;;;;;;21.90;20.70;;;;;;;;;;5017416;28;20033;-71
2022/10/15 09:16:13;;;;;;;23.42;22.13;;;;;;;;;;5019111;28;20093;-71
2022/10/15 09:18:43;;;;;;;24.38;23.08;;;;;;;;;;5020020;28;20414;-71
2022/10/15 09:21:10;;;;;;;24.98;23.67;;;;;;;;;;5014681;28;20042;-70
2022/10/15 09:23:36;;;;;;;22.48;21.27;;;;;;;;;;5016328;28;20405;-70
2022/10/15 09:26:24;;;;;;;17.27;16.33;;;;;;;;;;5014781;28;20088;-71
2022/10/15 09:29:15;;;;;;;19.48;18.38;;;;;;;;;;5012558;28;20087;-69
2022/10/15 09:31:47;;;;;;;16.42;15.52;;;;;;;;;;5017452;28;20022;-70
2022/10/15 09:34:30;;;;;;;20.75;19.13;;;;;;;;;;5016930;28;20337;-68
2022/10/15 09:37:05;;;;;;;19.75;18.65;;;;;;;;;;5019442;28;20042;-69
2022/10/15 09:40:18;;;;;;;18.95;17.92;;;;;;;;;;5033050;28;20123;-68
2022/10/15 09:42:44;;;;;;;16.83;15.82;;;;;;;;;;4971430;28;20084;-68
2022/10/15 09:45:12;;;;;;;19.85;18.67;;;;;;;;;;5020647;28;20088;-68
2022/10/15 09:47:42;;;;;;;17.52;16.52;;;;;;;;;;5016248;28;20033;-68
2022/10/15 09:50:10;;;;;;;13.70;12.90;;;;;;;;;;5016619;28;20046;-68
2022/10/15 09:52:51;;;;;;;11.02;10.32;;;;;;;;;;5014940;28;20313;-68
2022/10/15 09:56:01;;;;;;;12.45;11.75;;;;;;;;;;5016238;28;20080;-68
2022/10/15 09:58:32;;;;;;;10.20;9.60;;;;;;;;;;5015864;28;20049;-69
2022/10/15 10:01:02;;;;;;;;;;;;;;;;;;5015626;28;20034;-70
2022/10/15 10:03:30;;;;;;;11.88;11.18;;;;;;;;;;5015616;28;19925;-69
2022/10/15 10:06:12;;;;;;;9.35;8.75;;;;;;;;;;5016802;28;20018;-69
2022/10/15 10:08:46;;;;;;;10.50;9.88;;;;;;;;;;5015963;28;20044;-68
2022/10/15 10:11:12;;;;;;;9.70;9.10;;;;;;;;;;5016039;28;20045;-69
2022/10/15 10:13:45;;;;;;;9.55;8.95;;;;;;;;;;5017901;28;20048;-69
2022/10/15 10:16:12;;;;;;;9.80;9.20;;;;;;;;;;5019486;28;20041;-70
2022/10/15 10:18:38;;;;;;;9.02;8.43;;;;;;;;;;5018994;28;20106;-69
2022/10/15 10:21:10;;;;;;;10.00;9.40;;;;;;;;;;5014345;28;20033;-70
2022/10/15 10:23:38;;;;;;;9.20;8.60;;;;;;;;;;5034376;28;20029;-69
2022/10/15 10:26:06;;;;;;;9.85;9.25;;;;;;;;;;5016911;28;20087;-68
2022/10/15 10:28:54;;;;;;;12.60;11.88;;;;;;;;;;5015796;28;20112;-69
2022/10/15 10:31:28;;;;;;;12.40;11.70;;;;;;;;;;5019513;28;20048;-69
2022/10/15 10:33:54;;;;;;;10.93;10.25;;;;;;;;;;5017230;28;20025;-69
2022/10/15 10:36:35;;;;;;;11.85;11.15;;;;;;;;;;5018085;28;20033;-69
2022/10/15 10:39:13;;;;;;;12.38;11.68;;;;;;;;;;5017573;28;20038;-68
2022/10/15 10:41:59;;;;;;;9.52;8.93;;;;;;;;;;5019166;28;20626;-69
2022/10/15 10:44:33;;;;;;;8.60;8.10;;;;;;;;;;5015866;28;20042;-68
2022/10/15 10:47:05;;;;;;;9.40;8.80;;;;;;;;;;5019399;28;20193;-68
2022/10/15 10:49:40;;;;;;;9.23;8.63;;;;;;;;;;5050338;28;20091;-68
2022/10/15 10:52:18;;;;;;;10.13;9.52;;;;;;;;;;5015663;28;20044;-68
2022/10/15 10:54:43;;;;;;;9.48;8.88;;;;;;;;;;5016942;28;20036;-69
2022/10/15 10:57:12;;;;;;;9.77;9.18;;;;;;;;;;5014910;28;20352;-69
2022/10/15 10:59:50;;;;;;;11.07;10.38;;;;;;;;;;5015147;28;20069;-69
2022/10/15 11:02:16;;;;;;;11.15;10.45;;;;;;;;;;5022271;28;20053;-68
2022/10/15 11:04:42;;;;;;;11.80;11.10;;;;;;;;;;5010036;28;20083;-68
2022/10/15 11:07:07;;;;;;;13.60;12.80;;;;;;;;;;5012723;28;20029;-70
2022/10/15 11:09:50;;;;;;;13.55;12.75;;;;;;;;;;5018296;28;20225;-67
2022/10/15 11:12:27;;;;;;;14.05;13.23;;;;;;;;;;5017019;28;20103;-68
2022/10/15 11:15:27;;;;;;;13.85;13.05;;;;;;;;;;5013001;28;20036;-69
2022/10/15 11:18:31;;;;;;;15.77;14.88;;;;;;;;;;5016402;28;20032;-70
2022/10/15 11:21:28;;;;;;;13.27;12.48;;;;;;;;;;5018997;28;20038;-70
2022/10/15 11:24:09;;;;;;;11.32;10.52;;;;;;;;;;5013971;28;20034;-70
2022/10/15 11:27:10;;;;;;;9.82;9.13;;;;;;;;;;5017909;28;20048;-69
2022/10/15 11:29:53;;;;;;;9.32;8.73;;;;;;;;;;5016124;28;20118;-69
2022/10/15 11:32:54;;;;;;;9.07;8.48;;;;;;;;;;5016495;28;20036;-69
2022/10/15 11:35:19;;;;;;;;;;;;;;;;;;5018580;28;20114;-70
2022/10/15 11:37:59;;;;;;;9.52;8.93;;;;;;;;;;5013244;28;19987;-66
2022/10/15 11:40:54;;;;;;;9.38;8.77;;;;;;;;;;5016586;28;20026;-69
2022/10/15 11:43:31;;;;;;;10.25;9.65;;;;;;;;;;5014916;28;20041;-72
2022/10/15 11:46:11;;;;;;;10.90;10.20;;;;;;;;;;5013983;28;20099;-70
2022/10/15 11:49:03;;;;;;;10.98;10.30;;;;;;;;;;5017932;28;20044;-70
2022/10/15 11:51:37;;;;;;;11.30;10.60;;;;;;;;;;5018048;28;20053;-70
2022/10/15 11:54:15;;;;;;;12.93;12.13;;;;;;;;;;5018436;28;20030;-70
2022/10/15 11:56:49;;;;;;;11.57;10.88;;;;;;;;;;5014070;28;20033;-72
2022/10/15 11:59:14;;;;;;;12.10;11.40;;;;;;;;;;5014428;28;20034;-71
2022/10/15 12:01:48;;;;;;;11.55;10.85;;;;;;;;;;5015405;28;20044;-72
2022/10/15 12:04:33;;;;;;;11.65;10.95;;;;;;;;;;5016551;28;20383;-71
2022/10/15 12:07:01;;;;;;;12.18;11.48;;;;;;;;;;5015791;28;20026;-72
2022/10/15 12:09:35;;;;;;;12.50;11.73;;;;;;;;;;5016959;28;20610;-72
2022/10/15 12:12:28;;;;;;;11.50;10.80;;;;;;;;;;5016772;28;20410;-71
2022/10/15 12:15:25;;;;;;;11.70;11.00;;;;;;;;;;5018114;28;20363;-71
2022/10/15 12:18:00;;;;;;;13.00;12.20;;;;;;;;;;5013415;28;20029;-70
2022/10/15 12:20:27;;;;;;;12.90;12.10;;;;;;;;;;5013701;28;20061;-71
2022/10/15 12:22:57;;;;;;;14.27;13.48;;;;;;;;;;5015566;28;20037;-71
2022/10/15 12:25:34;;;;;;;15.10;14.10;;;;;;;;;;5015442;28;20071;-70
2022/10/15 12:28:04;;;;;;;13.35;12.57;;;;;;;;;;5015822;28;20494;-68
2022/10/15 12:30:36;;;;;;;13.93;13.13;;;;;;;;;;5016759;28;20033;-71
2022/10/15 12:33:19;;;;;;;14.57;13.77;;;;;;;;;;5019867;28;20310;-71
2022/10/15 12:35:53;;;;;;;15.50;14.60;;;;;;;;;;5020952;28;20423;-71
2022/10/15 12:38:25;;;;;;;16.08;15.18;;;;;;;;;;5018449;28;20566;-71
2022/10/15 12:41:01;;;;;;;16.92;16.02;;;;;;;;;;5019589;28;20029;-65
2022/10/15 12:43:28;;;;;;;15.80;14.90;;;;;;;;;;5025777;28;20121;-64
2022/10/15 12:45:56;;;;;;;16.45;15.55;;;;;;;;;;5020621;28;20038;-65
2022/10/15 12:48:31;;;;;;;16.30;15.40;;;;;;;;;;5019971;28;20083;-70
2022/10/15 12:51:33;;;;;;;15.23;14.35;;;;;;;;;;5018630;28;20049;-71
2022/10/15 12:54:01;;;;;;;14.18;13.38;;;;;;;;;;4968296;28;20058;-70
2022/10/15 12:56:40;;;;;;;14.40;13.60;;;;;;;;;;5008661;28;20141;-70
2022/10/15 12:59:32;;;;;;;15.43;14.52;;;;;;;;;;5017069;28;20025;-70
2022/10/15 13:01:57;;;;;;;13.60;12.80;;;;;;;;;;5015601;28;20042;-70
2022/10/15 13:04:34;;;;;;;15.00;14.15;;;;;;;;;;5018546;28;20645;-70
2022/10/15 13:07:03;;;;;;;15.90;15.00;;;;;;;;;;5017988;28;20531;-70
2022/10/15 13:09:29;;;;;;;16.25;15.35;;;;;;;;;;5025966;28;20502;-70
2022/10/15 13:11:57;;;;;;;14.25;13.35;;;;;;;;;;5019606;28;20325;-69
2022/10/15 13:14:29;;;;;;;14.35;13.55;;;;;;;;;;5018443;28;20038;-70
2022/10/15 13:16:56;;;;;;;14.20;13.40;;;;;;;;;;5017785;28;20529;-70
2022/10/15 13:19:26;;;;;;;13.30;12.50;;;;;;;;;;5016840;28;20031;-70
2022/10/15 13:21:55;;;;;;;15.25;14.15;;;;;;;;;;5020254;28;20034;-71
2022/10/15 13:24:24;;;;;;;13.55;12.75;;;;;;;;;;5023609;28;20156;-70
2022/10/15 13:26:50;;;;;;;14.32;13.43;;;;;;;;;;5017757;28;20060;-70
2022/10/15 13:29:17;;;;;;;23.80;21.35;;;;;;;;;;5020316;28;20525;-70
2022/10/15 13:31:43;;;;;;;12.15;11.45;;;;;;;;;;5020122;28;20356;-71
2022/10/15 13:34:25;;;;;;;13.88;13.07;;;;;;;;;;5017839;28;20116;-71
2022/10/15 13:36:52;;;;;;;11.77;11.07;;;;;;;;;;5019055;28;20648;-70
2022/10/15 13:39:34;;;;;;;10.77;10.07;;;;;;;;;;5019249;28;20053;-71
2022/10/15 13:42:21;;;;;;;10.07;9.48;;;;;;;;;;5020772;28;20037;-70
2022/10/15 13:45:15;;;;;;;11.02;10.23;;;;;;;;;;5019133;28;20038;-71
2022/10/15 13:47:45;;;;;;;10.63;9.93;;;;;;;;;;5017612;28;20048;-70
2022/10/15 13:50:23;;;;;;;10.60;9.90;;;;;;;;;;5018175;28;20026;-70
2022/10/15 13:52:56;;;;;;;10.55;9.88;;;;;;;;;;5018610;28;20367;-70
2022/10/15 13:55:27;;;;;;;11.38;10.68;;;;;;;;;;5030337;28;20029;-69
2022/10/15 13:57:58;;;;;;;9.88;9.27;;;;;;;;;;5017947;28;20412;-70
2022/10/15 14:00:28;;;;;;;10.25;9.65;;;;;;;;;;5018945;28;20025;-70
2022/10/15 14:03:14;;;;;;;9.15;8.55;;;;;;;;;;5018636;28;20034;-70
2022/10/15 14:05:41;;;;;;;9.68;9.07;;;;;;;;;;5016901;28;20025;-70
2022/10/15 14:08:25;;;;;;;11.13;10.43;;;;;;;;;;5019156;28;20033;-70
2022/10/15 14:10:52;;;;;;;11.48;10.77;;;;;;;;;;5019444;28;20037;-70
2022/10/15 14:13:18;;;;;;;10.13;9.52;;;;;;;;;;5020240;28;20627;-70
2022/10/15 14:15:51;;;;;;;9.88;9.27;;;;;;;;;;5018100;28;20048;-69
2022/10/15 14:18:27;;;;;;;8.65;8.05;;;;;;;;;;5032984;28;20026;-70
2022/10/15 14:20:53;;;;;;;8.95;8.35;;;;;;;;;;5016513;28;20091;-69
2022/10/15 14:23:22;;;;;;;9.20;8.60;;;;;;;;;;5016794;28;20033;-69
2022/10/15 14:26:09;;;;;;;8.32;7.82;;;;;;;;;;5019784;28;20037;-69
2022/10/15 14:28:36;;;;;;;9.05;8.45;;;;;;;;;;5020757;28;20469;-69
2022/10/15 14:31:03;;;;;;;9.38;8.77;;;;;;;;;;5015716;28;20107;-69
2022/10/15 14:33:37;;;;;;;9.23;8.63;;;;;;;;;;5017566;28;20029;-70
2022/10/15 14:36:08;;;;;;;9.55;8.95;;;;;;;;;;5047671;28;20046;-69
2022/10/15 14:38:34;;;;;;;11.50;10.80;;;;;;;;;;5015463;28;20033;-69
2022/10/15 14:41:06;;;;;;;10.02;9.43;;;;;;;;;;5013504;28;20022;-69
2022/10/15 14:43:33;;;;;;;9.60;9.00;;;;;;;;;;5018995;28;20333;-69